sensor_id;sensor_type;location;lat;lon;timestamp;temperature;humidity
68385;DHT22;55336;43.062;25.626;2023-05-10T00:01:23;9.10;99.90
68385;DHT22;55336;43.062;25.626;2023-05-10T00:03:49;9.00;99.90
68385;DHT22;55336;43.062;25.626;2023-05-10T00:06:17;9.00;99.90
68385;DHT22;55336;43.062;25.626;2023-05-10T00:08:44;9.00;99.90
68385;DHT22;55336;43.062;25.626;2023-05-10T00:11:10;8.90;99.90
68385;DHT22;55336;43.062;25.626;2023-05-10T00:13:36;9.00;99.90
68385;DHT22;55336;43.062;25.626;2023-05-10T00:16:02;8.90;99.90
68385;DHT22;55336;43.062;25.626;2023-05-10T00:18:28;9.00;99.90
68385;DHT22;55336;43.062;25.626;2023-05-10T00:20:53;9.00;99.90
68385;DHT22;55336;43.062;25.626;2023-05-10T00:23:19;9.00;99.90
68385;DHT22;55336;43.062;25.626;2023-05-10T00:25:45;9.00;99.90
68385;DHT22;55336;43.062;25.626;2023-05-10T00:28:11;9.00;99.90
68385;DHT22;55336;43.062;25.626;2023-05-10T00:30:36;9.00;99.90
68385;DHT22;55336;43.062;25.626;2023-05-10T00:33:02;8.90;99.90
68385;DHT22;55336;43.062;25.626;2023-05-10T00:35:28;8.90;99.90
68385;DHT22;55336;43.062;25.626;2023-05-10T00:37:54;8.80;99.90
68385;DHT22;55336;43.062;25.626;2023-05-10T00:40:22;8.80;99.90
68385;DHT22;55336;43.062;25.626;2023-05-10T00:42:47;8.70;99.90
68385;DHT22;55336;43.062;25.626;2023-05-10T00:45:13;8.70;99.90
68385;DHT22;55336;43.062;25.626;2023-05-10T00:47:39;8.50;99.90
68385;DHT22;55336;43.062;25.626;2023-05-10T00:50:05;8.50;99.90
68385;DHT22;55336;43.062;25.626;2023-05-10T00:52:31;8.50;99.90
68385;DHT22;55336;43.062;25.626;2023-05-10T00:54:57;8.50;99.90
68385;DHT22;55336;43.062;25.626;2023-05-10T00:57:23;8.50;99.90
68385;DHT22;55336;43.062;25.626;2023-05-10T00:59:49;8.40;99.90
68385;DHT22;55336;43.062;25.626;2023-05-10T01:02:15;8.40;99.90
68385;DHT22;55336;43.062;25.626;2023-05-10T01:04:41;8.20;99.90
68385;DHT22;55336;43.062;25.626;2023-05-10T01:07:08;8.20;99.90
68385;DHT22;55336;43.062;25.626;2023-05-10T01:09:34;8.30;99.90
68385;DHT22;55336;43.062;25.626;2023-05-10T01:12:01;8.20;99.90
68385;DHT22;55336;43.062;25.626;2023-05-10T01:14:27;8.10;99.90
68385;DHT22;55336;43.062;25.626;2023-05-10T01:16:53;8.10;99.90
68385;DHT22;55336;43.062;25.626;2023-05-10T01:19:23;8.10;99.90
68385;DHT22;55336;43.062;25.626;2023-05-10T01:21:51;8.10;99.90
68385;DHT22;55336;43.062;25.626;2023-05-10T01:27:09;8.10;99.90
68385;DHT22;55336;43.062;25.626;2023-05-10T01:34:34;8.00;99.90
68385;DHT22;55336;43.062;25.626;2023-05-10T01:37:11;7.90;99.90
68385;DHT22;55336;43.062;25.626;2023-05-10T01:42:09;7.80;99.90
68385;DHT22;55336;43.062;25.626;2023-05-10T01:44:40;7.80;99.90
68385;DHT22;55336;43.062;25.626;2023-05-10T01:47:11;7.80;99.90
68385;DHT22;55336;43.062;25.626;2023-05-10T01:49:42;7.70;99.90
68385;DHT22;55336;43.062;25.626;2023-05-10T01:52:12;7.70;99.90
68385;DHT22;55336;43.062;25.626;2023-05-10T01:54:41;7.60;99.90
68385;DHT22;55336;43.062;25.626;2023-05-10T01:57:08;7.50;99.90
68385;DHT22;55336;43.062;25.626;2023-05-10T01:59:35;7.40;99.90
68385;DHT22;55336;43.062;25.626;2023-05-10T02:02:04;7.50;99.90
68385;DHT22;55336;43.062;25.626;2023-05-10T02:04:31;7.50;99.90
68385;DHT22;55336;43.062;25.626;2023-05-10T02:06:57;7.50;99.90
68385;DHT22;55336;43.062;25.626;2023-05-10T02:09:23;7.50;99.90
68385;DHT22;55336;43.062;25.626;2023-05-10T02:11:50;7.50;99.90
68385;DHT22;55336;43.062;25.626;2023-05-10T02:14:17;7.50;99.90
68385;DHT22;55336;43.062;25.626;2023-05-10T02:16:43;7.50;99.90
68385;DHT22;55336;43.062;25.626;2023-05-10T02:19:10;7.50;99.90
68385;DHT22;55336;43.062;25.626;2023-05-10T02:21:37;7.20;99.90
68385;DHT22;55336;43.062;25.626;2023-05-10T02:24:04;7.50;99.90
68385;DHT22;55336;43.062;25.626;2023-05-10T02:26:31;7.50;99.90
68385;DHT22;55336;43.062;25.626;2023-05-10T02:28:58;7.50;99.90
68385;DHT22;55336;43.062;25.626;2023-05-10T02:31:24;7.50;99.90
68385;DHT22;55336;43.062;25.626;2023-05-10T02:33:50;7.50;99.90
68385;DHT22;55336;43.062;25.626;2023-05-10T02:36:16;7.50;99.90
68385;DHT22;55336;43.062;25.626;2023-05-10T02:38:43;7.50;99.90
68385;DHT22;55336;43.062;25.626;2023-05-10T02:41:09;7.50;99.90
68385;DHT22;55336;43.062;25.626;2023-05-10T02:43:36;7.40;99.90
68385;DHT22;55336;43.062;25.626;2023-05-10T02:46:02;7.40;99.90
68385;DHT22;55336;43.062;25.626;2023-05-10T02:48:29;7.30;99.90
68385;DHT22;55336;43.062;25.626;2023-05-10T02:50:55;7.20;99.90
68385;DHT22;55336;43.062;25.626;2023-05-10T02:53:28;7.20;99.90
68385;DHT22;55336;43.062;25.626;2023-05-10T02:55:56;7.10;99.90
68385;DHT22;55336;43.062;25.626;2023-05-10T02:58:22;7.00;99.90
68385;DHT22;55336;43.062;25.626;2023-05-10T03:00:48;6.90;99.90
68385;DHT22;55336;43.062;25.626;2023-05-10T03:03:14;6.90;99.90
68385;DHT22;55336;43.062;25.626;2023-05-10T03:05:40;6.80;99.90
68385;DHT22;55336;43.062;25.626;2023-05-10T03:08:06;6.70;99.90
68385;DHT22;55336;43.062;25.626;2023-05-10T03:10:32;6.70;99.90
68385;DHT22;55336;43.062;25.626;2023-05-10T03:18:18;6.50;99.90
68385;DHT22;55336;43.062;25.626;2023-05-10T03:20:50;6.20;99.90
68385;DHT22;55336;43.062;25.626;2023-05-10T03:23:26;6.50;99.90
68385;DHT22;55336;43.062;25.626;2023-05-10T03:25:52;6.40;99.90
68385;DHT22;55336;43.062;25.626;2023-05-10T03:28:18;6.40;99.90
68385;DHT22;55336;43.062;25.626;2023-05-10T03:30:45;6.40;99.90
68385;DHT22;55336;43.062;25.626;2023-05-10T03:33:11;6.40;99.90
68385;DHT22;55336;43.062;25.626;2023-05-10T03:35:38;6.40;99.90
68385;DHT22;55336;43.062;25.626;2023-05-10T03:38:04;6.40;99.90
68385;DHT22;55336;43.062;25.626;2023-05-10T03:40:30;6.40;99.90
68385;DHT22;55336;43.062;25.626;2023-05-10T03:42:57;6.50;99.90
68385;DHT22;55336;43.062;25.626;2023-05-10T03:45:23;6.50;99.90
68385;DHT22;55336;43.062;25.626;2023-05-10T03:47:49;6.50;99.90
68385;DHT22;55336;43.062;25.626;2023-05-10T03:50:15;6.60;99.90
68385;DHT22;55336;43.062;25.626;2023-05-10T03:52:41;6.70;99.90
68385;DHT22;55336;43.062;25.626;2023-05-10T03:55:07;6.90;99.90
68385;DHT22;55336;43.062;25.626;2023-05-10T03:57:34;7.00;99.90
68385;DHT22;55336;43.062;25.626;2023-05-10T04:00:00;7.20;99.90
68385;DHT22;55336;43.062;25.626;2023-05-10T04:02:26;7.50;99.90
68385;DHT22;55336;43.062;25.626;2023-05-10T04:04:52;7.60;99.90
68385;DHT22;55336;43.062;25.626;2023-05-10T04:07:20;7.80;99.90
68385;DHT22;55336;43.062;25.626;2023-05-10T04:09:47;7.90;99.90
68385;DHT22;55336;43.062;25.626;2023-05-10T04:12:13;8.10;99.90
68385;DHT22;55336;43.062;25.626;2023-05-10T04:14:39;8.30;99.90
68385;DHT22;55336;43.062;25.626;2023-05-10T04:17:05;8.50;99.90
68385;DHT22;55336;43.062;25.626;2023-05-10T04:19:31;8.70;99.90
68385;DHT22;55336;43.062;25.626;2023-05-10T04:21:57;9.00;99.90
68385;DHT22;55336;43.062;25.626;2023-05-10T04:24:23;9.20;99.90
68385;DHT22;55336;43.062;25.626;2023-05-10T04:26:49;9.30;99.90
68385;DHT22;55336;43.062;25.626;2023-05-10T04:29:15;9.30;99.90
68385;DHT22;55336;43.062;25.626;2023-05-10T04:31:42;9.60;99.90
68385;DHT22;55336;43.062;25.626;2023-05-10T04:34:08;9.80;99.90
68385;DHT22;55336;43.062;25.626;2023-05-10T04:36:34;9.80;99.90
68385;DHT22;55336;43.062;25.626;2023-05-10T04:39:01;9.80;99.90
68385;DHT22;55336;43.062;25.626;2023-05-10T04:41:28;9.90;99.90
68385;DHT22;55336;43.062;25.626;2023-05-10T04:43:54;10.00;99.90
68385;DHT22;55336;43.062;25.626;2023-05-10T04:46:20;10.20;99.90
68385;DHT22;55336;43.062;25.626;2023-05-10T04:48:46;10.40;99.90
68385;DHT22;55336;43.062;25.626;2023-05-10T04:51:11;10.60;99.90
68385;DHT22;55336;43.062;25.626;2023-05-10T04:53:37;10.70;99.90
68385;DHT22;55336;43.062;25.626;2023-05-10T04:56:03;10.90;99.90
68385;DHT22;55336;43.062;25.626;2023-05-10T04:58:29;11.10;99.90
68385;DHT22;55336;43.062;25.626;2023-05-10T05:00:55;11.20;99.90
68385;DHT22;55336;43.062;25.626;2023-05-10T05:03:21;11.30;99.90
68385;DHT22;55336;43.062;25.626;2023-05-10T05:05:47;11.80;99.90
68385;DHT22;55336;43.062;25.626;2023-05-10T05:08:13;11.50;99.90
68385;DHT22;55336;43.062;25.626;2023-05-10T05:10:39;11.70;99.90
68385;DHT22;55336;43.062;25.626;2023-05-10T05:13:05;11.90;99.90
68385;DHT22;55336;43.062;25.626;2023-05-10T05:15:30;12.10;99.90
68385;DHT22;55336;43.062;25.626;2023-05-10T05:17:56;12.30;99.90
68385;DHT22;55336;43.062;25.626;2023-05-10T05:20:22;12.60;99.90
68385;DHT22;55336;43.062;25.626;2023-05-10T05:22:51;12.80;99.90
68385;DHT22;55336;43.062;25.626;2023-05-10T05:25:22;12.90;99.90
68385;DHT22;55336;43.062;25.626;2023-05-10T05:27:51;13.30;99.90
68385;DHT22;55336;43.062;25.626;2023-05-10T05:30:19;13.80;99.90
68385;DHT22;55336;43.062;25.626;2023-05-10T05:32:48;14.10;99.90
68385;DHT22;55336;43.062;25.626;2023-05-10T05:35:20;14.40;99.90
68385;DHT22;55336;43.062;25.626;2023-05-10T05:37:51;14.80;99.90
68385;DHT22;55336;43.062;25.626;2023-05-10T05:40:19;15.10;99.90
68385;DHT22;55336;43.062;25.626;2023-05-10T05:42:45;15.50;99.90
68385;DHT22;55336;43.062;25.626;2023-05-10T05:45:20;15.80;99.90
68385;DHT22;55336;43.062;25.626;2023-05-10T05:47:49;16.10;99.90
68385;DHT22;55336;43.062;25.626;2023-05-10T05:50:17;15.90;95.50
68385;DHT22;55336;43.062;25.626;2023-05-10T05:52:45;16.70;92.00
68385;DHT22;55336;43.062;25.626;2023-05-10T05:55:19;17.00;85.90
68385;DHT22;55336;43.062;25.626;2023-05-10T05:57:50;17.20;79.00
68385;DHT22;55336;43.062;25.626;2023-05-10T06:00:22;17.20;74.30
68385;DHT22;55336;43.062;25.626;2023-05-10T06:02:48;17.10;74.40
68385;DHT22;55336;43.062;25.626;2023-05-10T06:05:14;17.20;75.20
68385;DHT22;55336;43.062;25.626;2023-05-10T06:07:43;17.40;76.00
68385;DHT22;55336;43.062;25.626;2023-05-10T06:10:09;17.80;74.50
68385;DHT22;55336;43.062;25.626;2023-05-10T06:12:35;17.80;69.80
68385;DHT22;55336;43.062;25.626;2023-05-10T06:15:00;17.90;69.50
68385;DHT22;55336;43.062;25.626;2023-05-10T06:17:26;18.00;67.70
68385;DHT22;55336;43.062;25.626;2023-05-10T06:19:51;17.90;67.50
68385;DHT22;55336;43.062;25.626;2023-05-10T06:22:17;18.00;66.60
68385;DHT22;55336;43.062;25.626;2023-05-10T06:24:43;17.70;66.20
68385;DHT22;55336;43.062;25.626;2023-05-10T06:27:08;18.10;66.00
68385;DHT22;55336;43.062;25.626;2023-05-10T06:29:34;18.30;63.40
68385;DHT22;55336;43.062;25.626;2023-05-10T06:32:00;18.30;62.60
68385;DHT22;55336;43.062;25.626;2023-05-10T06:34:25;18.40;60.20
68385;DHT22;55336;43.062;25.626;2023-05-10T06:36:51;18.50;60.50
68385;DHT22;55336;43.062;25.626;2023-05-10T06:39:17;18.40;57.80
68385;DHT22;55336;43.062;25.626;2023-05-10T06:41:43;18.60;59.20
68385;DHT22;55336;43.062;25.626;2023-05-10T06:44:08;18.40;58.80
68385;DHT22;55336;43.062;25.626;2023-05-10T06:46:34;18.50;58.00
68385;DHT22;55336;43.062;25.626;2023-05-10T06:49:00;18.40;59.20
68385;DHT22;55336;43.062;25.626;2023-05-10T06:51:26;18.50;58.70
68385;DHT22;55336;43.062;25.626;2023-05-10T06:53:52;18.70;59.20
68385;DHT22;55336;43.062;25.626;2023-05-10T06:56:18;19.20;58.60
68385;DHT22;55336;43.062;25.626;2023-05-10T06:58:47;19.40;57.00
68385;DHT22;55336;43.062;25.626;2023-05-10T07:01:13;19.60;56.30
68385;DHT22;55336;43.062;25.626;2023-05-10T07:03:38;19.70;56.50
68385;DHT22;55336;43.062;25.626;2023-05-10T07:06:04;19.70;55.30
68385;DHT22;55336;43.062;25.626;2023-05-10T07:08:31;19.50;54.70
68385;DHT22;55336;43.062;25.626;2023-05-10T07:11:01;19.60;53.90
68385;DHT22;55336;43.062;25.626;2023-05-10T07:13:27;19.90;54.20
68385;DHT22;55336;43.062;25.626;2023-05-10T07:15:52;20.30;53.30
68385;DHT22;55336;43.062;25.626;2023-05-10T07:18:18;20.30;53.10
68385;DHT22;55336;43.062;25.626;2023-05-10T07:20:44;20.40;52.00
68385;DHT22;55336;43.062;25.626;2023-05-10T07:23:10;20.50;52.90
68385;DHT22;55336;43.062;25.626;2023-05-10T07:25:36;20.60;52.60
68385;DHT22;55336;43.062;25.626;2023-05-10T07:28:03;20.70;50.80
68385;DHT22;55336;43.062;25.626;2023-05-10T07:30:28;20.60;51.60
68385;DHT22;55336;43.062;25.626;2023-05-10T07:32:55;20.40;52.40
68385;DHT22;55336;43.062;25.626;2023-05-10T07:35:20;20.70;51.50
68385;DHT22;55336;43.062;25.626;2023-05-10T07:37:46;20.70;50.30
68385;DHT22;55336;43.062;25.626;2023-05-10T07:40:12;20.80;49.50
68385;DHT22;55336;43.062;25.626;2023-05-10T07:42:38;20.80;50.00
68385;DHT22;55336;43.062;25.626;2023-05-10T07:45:04;21.00;52.30
68385;DHT22;55336;43.062;25.626;2023-05-10T07:47:30;21.00;48.90
68385;DHT22;55336;43.062;25.626;2023-05-10T07:49:56;21.50;48.20
68385;DHT22;55336;43.062;25.626;2023-05-10T07:52:22;21.00;49.00
68385;DHT22;55336;43.062;25.626;2023-05-10T07:54:48;21.50;47.70
68385;DHT22;55336;43.062;25.626;2023-05-10T07:57:14;21.10;47.20
68385;DHT22;55336;43.062;25.626;2023-05-10T07:59:43;21.40;48.30
68385;DHT22;55336;43.062;25.626;2023-05-10T08:02:10;21.40;45.50
68385;DHT22;55336;43.062;25.626;2023-05-10T08:04:35;21.60;45.30
68385;DHT22;55336;43.062;25.626;2023-05-10T08:07:01;22.00;42.10
68385;DHT22;55336;43.062;25.626;2023-05-10T08:09:27;22.00;41.80
68385;DHT22;55336;43.062;25.626;2023-05-10T08:11:53;21.90;43.20
68385;DHT22;55336;43.062;25.626;2023-05-10T08:14:19;21.30;44.90
68385;DHT22;55336;43.062;25.626;2023-05-10T08:16:46;21.30;43.90
68385;DHT22;55336;43.062;25.626;2023-05-10T08:19:12;21.70;44.80
68385;DHT22;55336;43.062;25.626;2023-05-10T08:21:38;21.80;42.20
68385;DHT22;55336;43.062;25.626;2023-05-10T08:24:05;22.00;42.30
68385;DHT22;55336;43.062;25.626;2023-05-10T08:26:32;21.90;43.70
68385;DHT22;55336;43.062;25.626;2023-05-10T08:28:57;22.40;42.60
68385;DHT22;55336;43.062;25.626;2023-05-10T08:31:23;22.30;43.30
68385;DHT22;55336;43.062;25.626;2023-05-10T08:33:49;22.40;40.90
68385;DHT22;55336;43.062;25.626;2023-05-10T08:36:16;22.20;41.80
68385;DHT22;55336;43.062;25.626;2023-05-10T08:38:53;22.70;44.30
68385;DHT22;55336;43.062;25.626;2023-05-10T08:41:22;22.70;41.70
68385;DHT22;55336;43.062;25.626;2023-05-10T08:43:50;23.00;42.60
68385;DHT22;55336;43.062;25.626;2023-05-10T08:46:17;23.30;41.30
68385;DHT22;55336;43.062;25.626;2023-05-10T08:48:44;23.50;39.10
68385;DHT22;55336;43.062;25.626;2023-05-10T08:51:10;22.80;43.70
68385;DHT22;55336;43.062;25.626;2023-05-10T08:53:43;23.20;42.20
68385;DHT22;55336;43.062;25.626;2023-05-10T08:56:09;23.50;40.60
68385;DHT22;55336;43.062;25.626;2023-05-10T08:58:35;23.80;40.10
68385;DHT22;55336;43.062;25.626;2023-05-10T09:01:02;23.20;37.90
68385;DHT22;55336;43.062;25.626;2023-05-10T09:03:27;23.60;39.00
68385;DHT22;55336;43.062;25.626;2023-05-10T09:05:53;23.70;38.80
68385;DHT22;55336;43.062;25.626;2023-05-10T09:08:21;24.10;37.70
68385;DHT22;55336;43.062;25.626;2023-05-10T09:10:50;22.90;39.70
68385;DHT22;55336;43.062;25.626;2023-05-10T09:13:16;21.60;46.20
68385;DHT22;55336;43.062;25.626;2023-05-10T09:15:43;21.90;42.00
68385;DHT22;55336;43.062;25.626;2023-05-10T09:18:09;22.70;42.10
68385;DHT22;55336;43.062;25.626;2023-05-10T09:20:35;22.90;39.10
68385;DHT22;55336;43.062;25.626;2023-05-10T09:23:00;23.20;40.40
68385;DHT22;55336;43.062;25.626;2023-05-10T09:25:26;22.50;39.90
68385;DHT22;55336;43.062;25.626;2023-05-10T09:27:52;21.70;41.20
68385;DHT22;55336;43.062;25.626;2023-05-10T09:32:44;20.70;45.00
68385;DHT22;55336;43.062;25.626;2023-05-10T09:35:11;21.20;44.30
68385;DHT22;55336;43.062;25.626;2023-05-10T09:37:39;20.80;45.90
68385;DHT22;55336;43.062;25.626;2023-05-10T09:40:07;20.60;43.20
68385;DHT22;55336;43.062;25.626;2023-05-10T09:42:33;21.50;46.30
68385;DHT22;55336;43.062;25.626;2023-05-10T09:45:00;22.00;40.20
68385;DHT22;55336;43.062;25.626;2023-05-10T09:47:26;21.50;40.00
68385;DHT22;55336;43.062;25.626;2023-05-10T09:49:55;21.50;41.50
68385;DHT22;55336;43.062;25.626;2023-05-10T09:52:28;21.50;41.70
68385;DHT22;55336;43.062;25.626;2023-05-10T09:54:54;21.40;41.70
68385;DHT22;55336;43.062;25.626;2023-05-10T09:57:20;21.30;42.60
68385;DHT22;55336;43.062;25.626;2023-05-10T09:59:46;22.00;42.00
68385;DHT22;55336;43.062;25.626;2023-05-10T10:02:12;21.80;40.50
68385;DHT22;55336;43.062;25.626;2023-05-10T10:04:42;21.50;43.80
68385;DHT22;55336;43.062;25.626;2023-05-10T10:07:07;21.20;42.50
68385;DHT22;55336;43.062;25.626;2023-05-10T10:09:34;21.50;42.30
68385;DHT22;55336;43.062;25.626;2023-05-10T10:12:00;22.30;41.30
68385;DHT22;55336;43.062;25.626;2023-05-10T10:14:26;22.40;40.20
68385;DHT22;55336;43.062;25.626;2023-05-10T10:16:52;22.10;41.40
68385;DHT22;55336;43.062;25.626;2023-05-10T10:19:20;21.90;41.80
68385;DHT22;55336;43.062;25.626;2023-05-10T10:21:47;20.60;41.10
68385;DHT22;55336;43.062;25.626;2023-05-10T10:24:12;21.20;42.40
68385;DHT22;55336;43.062;25.626;2023-05-10T10:26:38;22.60;40.70
68385;DHT22;55336;43.062;25.626;2023-05-10T10:32:09;21.60;42.30
68385;DHT22;55336;43.062;25.626;2023-05-10T10:34:29;21.40;43.70
68385;DHT22;55336;43.062;25.626;2023-05-10T10:36:58;21.70;43.40
68385;DHT22;55336;43.062;25.626;2023-05-10T10:39:29;21.50;42.60
68385;DHT22;55336;43.062;25.626;2023-05-10T10:41:55;21.40;42.80
68385;DHT22;55336;43.062;25.626;2023-05-10T10:52:22;22.50;38.80
68385;DHT22;55336;43.062;25.626;2023-05-10T10:54:52;22.10;39.70
68385;DHT22;55336;43.062;25.626;2023-05-10T10:57:19;21.70;42.50
68385;DHT22;55336;43.062;25.626;2023-05-10T10:59:47;21.50;41.10
68385;DHT22;55336;43.062;25.626;2023-05-10T11:04:57;21.00;42.30
68385;DHT22;55336;43.062;25.626;2023-05-10T11:07:23;21.00;41.90
68385;DHT22;55336;43.062;25.626;2023-05-10T11:09:49;21.10;42.10
68385;DHT22;55336;43.062;25.626;2023-05-10T11:12:15;20.90;42.40
68385;DHT22;55336;43.062;25.626;2023-05-10T11:14:41;20.70;43.60
68385;DHT22;55336;43.062;25.626;2023-05-10T11:20:02;20.20;45.70
68385;DHT22;55336;43.062;25.626;2023-05-10T11:22:28;20.10;45.60
68385;DHT22;55336;43.062;25.626;2023-05-10T11:24:57;20.10;44.30
68385;DHT22;55336;43.062;25.626;2023-05-10T11:27:23;20.30;45.30
68385;DHT22;55336;43.062;25.626;2023-05-10T11:29:53;20.60;45.40
68385;DHT22;55336;43.062;25.626;2023-05-10T11:32:19;20.80;45.50
68385;DHT22;55336;43.062;25.626;2023-05-10T11:34:46;20.90;44.80
68385;DHT22;55336;43.062;25.626;2023-05-10T11:37:13;20.80;44.90
68385;DHT22;55336;43.062;25.626;2023-05-10T11:39:39;20.90;43.30
68385;DHT22;55336;43.062;25.626;2023-05-10T11:42:11;20.60;44.30
68385;DHT22;55336;43.062;25.626;2023-05-10T11:44:37;20.70;45.00
68385;DHT22;55336;43.062;25.626;2023-05-10T11:47:03;20.70;43.70
68385;DHT22;55336;43.062;25.626;2023-05-10T11:49:29;20.60;46.10
68385;DHT22;55336;43.062;25.626;2023-05-10T11:52:04;20.70;46.40
68385;DHT22;55336;43.062;25.626;2023-05-10T11:54:30;20.80;45.90
68385;DHT22;55336;43.062;25.626;2023-05-10T11:56:56;20.90;44.70
68385;DHT22;55336;43.062;25.626;2023-05-10T11:59:22;21.10;44.30
68385;DHT22;55336;43.062;25.626;2023-05-10T12:01:48;21.30;43.70
68385;DHT22;55336;43.062;25.626;2023-05-10T12:04:14;21.90;41.80
68385;DHT22;55336;43.062;25.626;2023-05-10T12:06:40;22.60;40.00
68385;DHT22;55336;43.062;25.626;2023-05-10T12:09:06;22.80;39.30
68385;DHT22;55336;43.062;25.626;2023-05-10T12:11:38;23.80;39.90
68385;DHT22;55336;43.062;25.626;2023-05-10T12:14:05;24.50;40.80
68385;DHT22;55336;43.062;25.626;2023-05-10T12:16:31;24.20;38.40
68385;DHT22;55336;43.062;25.626;2023-05-10T12:18:57;24.80;39.20
68385;DHT22;55336;43.062;25.626;2023-05-10T12:21:23;25.40;36.40
68385;DHT22;55336;43.062;25.626;2023-05-10T12:23:50;25.00;35.50
68385;DHT22;55336;43.062;25.626;2023-05-10T12:26:16;26.10;33.60
68385;DHT22;55336;43.062;25.626;2023-05-10T12:28:42;25.70;34.80
68385;DHT22;55336;43.062;25.626;2023-05-10T12:31:07;26.70;35.20
68385;DHT22;55336;43.062;25.626;2023-05-10T12:33:40;25.50;34.90
68385;DHT22;55336;43.062;25.626;2023-05-10T12:36:13;24.90;37.10
68385;DHT22;55336;43.062;25.626;2023-05-10T12:38:39;24.40;36.90
68385;DHT22;55336;43.062;25.626;2023-05-10T12:41:08;24.90;38.20
68385;DHT22;55336;43.062;25.626;2023-05-10T12:43:34;24.70;38.10
68385;DHT22;55336;43.062;25.626;2023-05-10T12:46:07;24.40;38.70
68385;DHT22;55336;43.062;25.626;2023-05-10T12:48:33;23.80;38.60
68385;DHT22;55336;43.062;25.626;2023-05-10T12:51:00;22.90;40.00
68385;DHT22;55336;43.062;25.626;2023-05-10T12:53:26;22.50;41.70
68385;DHT22;55336;43.062;25.626;2023-05-10T12:55:52;22.00;42.10
68385;DHT22;55336;43.062;25.626;2023-05-10T12:58:19;21.60;43.50
68385;DHT22;55336;43.062;25.626;2023-05-10T13:00:45;21.30;44.80
68385;DHT22;55336;43.062;25.626;2023-05-10T13:03:11;21.10;45.00
68385;DHT22;55336;43.062;25.626;2023-05-10T13:05:37;20.80;45.30
68385;DHT22;55336;43.062;25.626;2023-05-10T13:08:03;20.40;47.00
68385;DHT22;55336;43.062;25.626;2023-05-10T13:10:29;20.10;47.10
68385;DHT22;55336;43.062;25.626;2023-05-10T13:12:55;19.90;48.20
68385;DHT22;55336;43.062;25.626;2023-05-10T13:15:21;19.60;47.50
68385;DHT22;55336;43.062;25.626;2023-05-10T13:17:47;19.30;48.20
68385;DHT22;55336;43.062;25.626;2023-05-10T13:20:13;18.90;49.10
68385;DHT22;55336;43.062;25.626;2023-05-10T13:22:40;18.80;50.00
68385;DHT22;55336;43.062;25.626;2023-05-10T13:25:06;18.60;51.10
68385;DHT22;55336;43.062;25.626;2023-05-10T13:27:32;18.50;51.90
68385;DHT22;55336;43.062;25.626;2023-05-10T13:29:58;18.40;51.90
68385;DHT22;55336;43.062;25.626;2023-05-10T13:32:25;18.40;52.20
68385;DHT22;55336;43.062;25.626;2023-05-10T13:34:51;18.30;53.30
68385;DHT22;55336;43.062;25.626;2023-05-10T13:37:17;18.30;52.80
68385;DHT22;55336;43.062;25.626;2023-05-10T13:39:42;18.00;52.70
68385;DHT22;55336;43.062;25.626;2023-05-10T13:42:08;18.00;54.10
68385;DHT22;55336;43.062;25.626;2023-05-10T13:44:34;18.10;54.30
68385;DHT22;55336;43.062;25.626;2023-05-10T13:46:59;18.00;53.90
68385;DHT22;55336;43.062;25.626;2023-05-10T13:49:26;18.10;54.80
68385;DHT22;55336;43.062;25.626;2023-05-10T13:51:52;18.00;54.30
68385;DHT22;55336;43.062;25.626;2023-05-10T13:54:17;18.00;54.80
68385;DHT22;55336;43.062;25.626;2023-05-10T13:56:47;18.00;54.10
68385;DHT22;55336;43.062;25.626;2023-05-10T13:59:14;18.00;54.40
68385;DHT22;55336;43.062;25.626;2023-05-10T14:01:40;18.10;54.80
68385;DHT22;55336;43.062;25.626;2023-05-10T14:04:06;18.10;55.00
68385;DHT22;55336;43.062;25.626;2023-05-10T14:06:35;18.10;55.20
68385;DHT22;55336;43.062;25.626;2023-05-10T14:09:02;18.20;55.80
68385;DHT22;55336;43.062;25.626;2023-05-10T14:11:28;18.30;55.00
68385;DHT22;55336;43.062;25.626;2023-05-10T14:13:54;18.30;53.30
68385;DHT22;55336;43.062;25.626;2023-05-10T14:16:20;18.50;54.00
68385;DHT22;55336;43.062;25.626;2023-05-10T14:18:46;18.60;52.50
68385;DHT22;55336;43.062;25.626;2023-05-10T14:21:12;18.80;52.80
68385;DHT22;55336;43.062;25.626;2023-05-10T14:23:38;19.00;52.80
68385;DHT22;55336;43.062;25.626;2023-05-10T14:26:04;19.20;50.40
68385;DHT22;55336;43.062;25.626;2023-05-10T14:28:29;19.40;50.00
68385;DHT22;55336;43.062;25.626;2023-05-10T14:30:55;19.60;49.90
68385;DHT22;55336;43.062;25.626;2023-05-10T14:33:21;19.80;48.50
68385;DHT22;55336;43.062;25.626;2023-05-10T14:35:47;20.40;49.10
68385;DHT22;55336;43.062;25.626;2023-05-10T14:38:14;20.50;47.40
68385;DHT22;55336;43.062;25.626;2023-05-10T14:40:40;20.50;46.80
68385;DHT22;55336;43.062;25.626;2023-05-10T14:43:05;20.60;47.20
68385;DHT22;55336;43.062;25.626;2023-05-10T14:45:32;20.90;48.30
68385;DHT22;55336;43.062;25.626;2023-05-10T14:47:58;21.30;45.60
68385;DHT22;55336;43.062;25.626;2023-05-10T14:50:24;21.20;45.70
68385;DHT22;55336;43.062;25.626;2023-05-10T14:52:50;20.90;44.10
68385;DHT22;55336;43.062;25.626;2023-05-10T14:55:16;20.10;45.50
68385;DHT22;55336;43.062;25.626;2023-05-10T14:57:43;19.90;45.70
68385;DHT22;55336;43.062;25.626;2023-05-10T15:00:11;19.80;45.20
68385;DHT22;55336;43.062;25.626;2023-05-10T15:02:37;20.10;45.20
68385;DHT22;55336;43.062;25.626;2023-05-10T15:05:03;20.00;45.20
68385;DHT22;55336;43.062;25.626;2023-05-10T15:07:29;19.90;46.70
68385;DHT22;55336;43.062;25.626;2023-05-10T15:09:56;19.90;48.40
68385;DHT22;55336;43.062;25.626;2023-05-10T15:12:22;19.90;50.10
68385;DHT22;55336;43.062;25.626;2023-05-10T15:14:48;19.90;47.60
68385;DHT22;55336;43.062;25.626;2023-05-10T15:17:14;19.90;46.80
68385;DHT22;55336;43.062;25.626;2023-05-10T15:19:40;19.90;49.40
68385;DHT22;55336;43.062;25.626;2023-05-10T15:22:05;19.90;49.00
68385;DHT22;55336;43.062;25.626;2023-05-10T15:24:31;20.00;49.20
68385;DHT22;55336;43.062;25.626;2023-05-10T15:26:57;20.00;48.60
68385;DHT22;55336;43.062;25.626;2023-05-10T15:29:23;20.10;49.80
68385;DHT22;55336;43.062;25.626;2023-05-10T15:31:50;20.10;49.60
68385;DHT22;55336;43.062;25.626;2023-05-10T15:34:16;20.00;49.60
68385;DHT22;55336;43.062;25.626;2023-05-10T15:36:42;19.90;49.90
68385;DHT22;55336;43.062;25.626;2023-05-10T15:39:08;19.80;49.60
68385;DHT22;55336;43.062;25.626;2023-05-10T15:41:37;19.70;50.50
68385;DHT22;55336;43.062;25.626;2023-05-10T15:44:03;19.60;52.60
68385;DHT22;55336;43.062;25.626;2023-05-10T15:46:29;19.50;51.70
68385;DHT22;55336;43.062;25.626;2023-05-10T15:48:58;19.00;53.10
68385;DHT22;55336;43.062;25.626;2023-05-10T15:51:24;19.20;52.70